createdAt,value
2018-04-30T00:02:00.399Z,13.96
2018-04-30T00:04:27.960Z,13.95
2018-04-30T00:06:55.514Z,13.92
2018-04-30T00:09:23.058Z,13.88
2018-04-30T00:11:50.780Z,13.82
2018-04-30T00:14:18.310Z,13.77
2018-04-30T00:16:45.851Z,13.77
2018-04-30T00:19:13.463Z,13.77
2018-04-30T00:21:41.016Z,13.75
2018-04-30T00:24:08.567Z,13.75
2018-04-30T00:26:36.159Z,13.70
2018-04-30T00:29:03.721Z,13.68
2018-04-30T00:31:31.289Z,13.69
2018-04-30T00:33:58.982Z,13.70
2018-04-30T00:36:26.510Z,13.71
2018-04-30T00:38:54.506Z,13.68
2018-04-30T00:41:22.229Z,13.64
2018-04-30T00:43:49.866Z,13.64
2018-04-30T00:46:17.395Z,13.63
2018-04-30T00:48:44.959Z,13.66
2018-04-30T00:51:12.508Z,13.65
2018-04-30T00:53:40.052Z,13.64
2018-04-30T00:56:07.824Z,13.60
2018-04-30T00:58:35.364Z,13.56
2018-04-30T01:01:02.908Z,13.57
2018-04-30T01:03:30.599Z,13.56
2018-04-30T01:05:58.221Z,13.54
2018-04-30T01:08:25.754Z,13.52
2018-04-30T01:10:53.319Z,13.52
2018-04-30T01:13:20.845Z,13.52
2018-04-30T01:15:48.388Z,13.48
2018-04-30T01:18:15.975Z,13.41
2018-04-30T01:20:43.529Z,13.38
2018-04-30T01:23:11.076Z,13.33
2018-04-30T01:25:38.940Z,13.31
2018-04-30T01:28:06.503Z,13.19
2018-04-30T01:30:34.042Z,13.16
2018-04-30T01:33:01.627Z,13.16
2018-04-30T01:35:29.168Z,13.16
2018-04-30T01:37:56.704Z,13.13
2018-04-30T01:40:24.261Z,13.13
2018-04-30T01:42:51.786Z,13.13
2018-04-30T01:45:19.333Z,13.11
2018-04-30T01:47:47.068Z,13.09
2018-04-30T01:50:14.610Z,13.08
2018-04-30T01:52:42.161Z,13.05
2018-04-30T01:55:09.885Z,13.01
2018-04-30T01:57:37.458Z,12.96
2018-04-30T02:00:05.028Z,12.94
2018-04-30T02:02:32.622Z,12.94
2018-04-30T02:05:00.155Z,12.92
2018-04-30T02:07:27.714Z,12.90
2018-04-30T02:09:55.463Z,12.89
2018-04-30T02:12:23.008Z,12.83
2018-04-30T02:14:50.557Z,12.77
2018-04-30T02:17:18.143Z,12.76
2018-04-30T02:19:45.692Z,12.69
2018-04-30T02:22:13.241Z,12.61
2018-04-30T02:24:40.959Z,12.61
2018-04-30T02:27:08.548Z,12.62
2018-04-30T02:29:36.090Z,12.66
2018-04-30T02:32:03.674Z,12.65
2018-04-30T02:34:31.229Z,12.65
2018-04-30T02:36:58.761Z,12.66
2018-04-30T02:39:26.619Z,12.68
2018-04-30T02:41:54.167Z,12.66
2018-04-30T02:44:21.720Z,12.64
2018-04-30T02:46:49.438Z,12.66
2018-04-30T02:49:16.976Z,12.67
2018-04-30T02:51:44.529Z,12.67
2018-04-30T02:54:12.099Z,12.68
2018-04-30T02:56:39.716Z,12.73
2018-04-30T02:59:07.280Z,12.67
2018-04-30T03:01:34.821Z,12.70
2018-04-30T03:04:02.364Z,12.66
2018-04-30T03:06:29.928Z,12.67
2018-04-30T03:08:57.473Z,12.71
2018-04-30T03:11:25.013Z,12.66
2018-04-30T03:13:52.656Z,12.67
2018-04-30T03:16:20.201Z,12.70
2018-04-30T03:18:47.749Z,12.71
2018-04-30T03:21:15.471Z,12.73
2018-04-30T03:23:43.013Z,12.80
2018-04-30T03:26:10.558Z,12.81
2018-04-30T03:28:38.267Z,12.83
2018-04-30T03:31:05.818Z,12.75
2018-04-30T03:33:33.361Z,12.84
2018-04-30T03:36:01.224Z,12.94
2018-04-30T03:38:28.767Z,12.85
2018-04-30T03:40:56.309Z,13.08
2018-04-30T03:43:23.997Z,13.28
2018-04-30T03:45:51.550Z,13.53
2018-04-30T03:48:19.078Z,13.83
2018-04-30T03:50:46.821Z,14.18
2018-04-30T03:53:14.368Z,14.57
2018-04-30T03:55:41.915Z,15.04
2018-04-30T03:58:09.495Z,15.58
2018-04-30T04:00:48.658Z,16.12
2018-04-30T04:03:28.568Z,16.53
2018-04-30T04:06:07.848Z,16.76
2018-04-30T04:08:35.559Z,17.22
2018-04-30T04:11:03.092Z,17.81
2018-04-30T04:13:30.630Z,18.11
2018-04-30T04:15:58.351Z,18.89
2018-04-30T04:18:25.892Z,19.55
2018-04-30T04:20:53.445Z,20.12
2018-04-30T04:23:21.015Z,20.69
2018-04-30T04:25:48.553Z,21.30
2018-04-30T04:28:16.097Z,22.21
2018-04-30T04:30:43.691Z,22.92
2018-04-30T04:33:11.241Z,23.64
2018-04-30T04:35:38.785Z,24.78
2018-04-30T04:38:06.367Z,25.20
2018-04-30T04:40:33.925Z,25.86
2018-04-30T04:43:01.456Z,26.00
2018-04-30T04:45:29.177Z,26.27
2018-04-30T04:47:56.720Z,25.85
2018-04-30T04:50:24.276Z,25.11
2018-04-30T04:52:51.855Z,25.26
2018-04-30T04:55:19.460Z,25.01
2018-04-30T04:57:47.000Z,25.73
2018-04-30T05:00:14.531Z,27.23
2018-04-30T05:02:42.076Z,28.66
2018-04-30T05:05:09.659Z,30.29
2018-04-30T05:07:37.206Z,31.22
2018-04-30T05:10:04.743Z,32.27
2018-04-30T05:12:32.455Z,32.28
2018-04-30T05:14:59.986Z,33.03
2018-04-30T05:17:27.522Z,33.63
2018-04-30T05:19:55.204Z,33.55
2018-04-30T05:22:22.748Z,33.76
2018-04-30T05:24:50.291Z,32.70
2018-04-30T05:27:18.020Z,31.23
2018-04-30T05:29:45.576Z,30.24
2018-04-30T05:32:13.145Z,30.18
2018-04-30T05:34:40.820Z,29.99
2018-04-30T05:37:08.351Z,29.61
2018-04-30T05:39:35.912Z,28.92
2018-04-30T05:42:03.603Z,28.97
2018-04-30T05:44:31.165Z,29.10
2018-04-30T05:46:58.724Z,28.74
2018-04-30T05:49:26.460Z,28.07
2018-04-30T05:51:54.007Z,28.11
2018-04-30T05:54:21.538Z,27.85
2018-04-30T05:56:49.319Z,27.73
2018-04-30T05:59:16.826Z,27.04
2018-04-30T06:01:44.389Z,27.20
2018-04-30T06:04:11.968Z,26.85
2018-04-30T06:06:39.533Z,27.01
2018-04-30T06:09:07.119Z,26.53
2018-04-30T06:11:34.707Z,26.23
2018-04-30T06:14:02.248Z,25.87
2018-04-30T06:16:29.819Z,25.16
2018-04-30T06:18:57.394Z,24.62
2018-04-30T06:21:24.933Z,24.33
2018-04-30T06:23:53.369Z,23.99
2018-04-30T06:26:21.104Z,23.96
2018-04-30T06:28:48.643Z,23.95
2018-04-30T06:31:16.181Z,24.28
2018-04-30T06:33:43.858Z,23.91
2018-04-30T06:36:11.431Z,22.93
2018-04-30T06:38:38.984Z,23.15
2018-04-30T06:41:06.857Z,23.21
2018-04-30T06:43:34.400Z,22.99
2018-04-30T06:46:01.934Z,22.91
2018-04-30T06:48:29.543Z,22.96
2018-04-30T06:50:57.089Z,23.01
2018-04-30T06:53:24.705Z,23.28
2018-04-30T06:55:52.395Z,23.26
2018-04-30T06:58:19.941Z,23.06
2018-04-30T07:00:47.494Z,22.81
2018-04-30T07:03:15.069Z,22.27
2018-04-30T07:05:42.603Z,21.90
2018-04-30T07:08:10.144Z,21.58
2018-04-30T07:10:38.036Z,21.15
2018-04-30T07:13:05.594Z,21.16
2018-04-30T07:15:33.142Z,21.23
2018-04-30T07:18:00.815Z,21.28
2018-04-30T07:20:28.388Z,21.62
2018-04-30T07:22:55.941Z,22.07
2018-04-30T07:25:23.516Z,22.22
2018-04-30T07:27:51.144Z,22.50
2018-04-30T07:30:18.648Z,23.01
2018-04-30T07:32:46.219Z,23.36
2018-04-30T07:35:13.759Z,23.77
2018-04-30T07:37:41.304Z,24.18
2018-04-30T07:40:08.899Z,24.30
2018-04-30T07:42:36.435Z,24.36
2018-04-30T07:45:04.032Z,24.65
2018-04-30T07:47:31.591Z,24.84
2018-04-30T07:49:59.125Z,24.95
2018-04-30T07:52:26.733Z,24.68
2018-04-30T07:54:54.824Z,25.05
2018-04-30T07:57:22.430Z,25.55
2018-04-30T07:59:49.935Z,25.45
2018-04-30T08:02:17.488Z,24.80
2018-04-30T08:04:45.052Z,24.58
2018-04-30T08:07:12.908Z,24.50
2018-04-30T08:09:40.445Z,24.49
2018-04-30T08:12:07.985Z,24.61
2018-04-30T08:14:35.567Z,24.77
2018-04-30T08:17:03.106Z,24.63
2018-04-30T08:19:30.656Z,24.64
2018-04-30T08:21:58.222Z,24.34
2018-04-30T08:24:25.758Z,24.39
2018-04-30T08:26:53.341Z,24.38
2018-04-30T08:29:21.021Z,24.54
2018-04-30T08:31:48.555Z,24.58
2018-04-30T08:34:16.121Z,24.17
2018-04-30T08:36:43.713Z,23.75
2018-04-30T08:39:11.284Z,23.43
2018-04-30T08:41:38.836Z,23.66
2018-04-30T08:44:06.624Z,24.07
2018-04-30T08:46:34.173Z,23.83
2018-04-30T08:49:01.712Z,23.72
2018-04-30T08:51:29.288Z,23.61
2018-04-30T08:53:56.819Z,23.66
2018-04-30T08:56:24.349Z,23.95
2018-04-30T08:58:51.918Z,24.12
2018-04-30T09:01:19.452Z,24.31
2018-04-30T09:03:46.995Z,24.25
2018-04-30T09:06:14.568Z,24.51
2018-04-30T09:08:42.128Z,24.70
2018-04-30T09:11:09.709Z,24.56
2018-04-30T09:13:37.912Z,24.02
2018-04-30T09:16:05.488Z,24.47
2018-04-30T09:18:33.036Z,24.62
2018-04-30T09:21:00.743Z,24.81
2018-04-30T09:23:28.281Z,24.49
2018-04-30T09:25:55.815Z,24.11
2018-04-30T09:28:23.537Z,24.06
2018-04-30T09:30:51.086Z,23.95
2018-04-30T09:33:18.629Z,24.08
2018-04-30T09:35:46.208Z,23.94
2018-04-30T09:38:13.753Z,24.03
2018-04-30T09:40:41.302Z,23.98
2018-04-30T09:43:08.904Z,23.90
2018-04-30T09:45:36.643Z,24.07
2018-04-30T09:48:04.204Z,24.06
2018-04-30T09:50:31.777Z,24.14
2018-04-30T09:52:59.324Z,24.41
2018-04-30T09:55:26.869Z,24.16
2018-04-30T09:57:54.665Z,23.97
2018-04-30T10:00:24.004Z,23.90
2018-04-30T10:02:51.544Z,24.25
2018-04-30T10:05:19.123Z,24.09
2018-04-30T10:07:46.668Z,24.27
2018-04-30T10:10:14.209Z,24.52
2018-04-30T10:12:41.787Z,24.48
2018-04-30T10:15:09.351Z,24.90
2018-04-30T10:17:36.934Z,24.82
2018-04-30T10:20:04.513Z,24.80
2018-04-30T10:22:32.048Z,25.16
2018-04-30T10:24:59.591Z,25.34
2018-04-30T10:27:27.178Z,25.63
2018-04-30T10:29:54.728Z,25.99
2018-04-30T10:32:22.273Z,26.11
2018-04-30T10:34:50.078Z,26.20
2018-04-30T10:37:17.608Z,26.00
2018-04-30T10:39:45.181Z,26.04
2018-04-30T10:42:12.779Z,25.87
2018-04-30T10:44:41.077Z,25.76
2018-04-30T10:47:08.615Z,25.86
2018-04-30T10:49:36.197Z,25.85
2018-04-30T10:52:03.740Z,25.90
2018-04-30T10:54:31.292Z,25.51
2018-04-30T10:56:58.866Z,25.42
2018-04-30T10:59:26.405Z,25.54
2018-04-30T11:01:53.945Z,25.44
2018-04-30T11:04:21.511Z,25.71
2018-04-30T11:06:49.084Z,25.63
2018-04-30T11:09:16.624Z,25.70
2018-04-30T11:11:44.378Z,25.86
2018-04-30T11:14:11.908Z,25.83
2018-04-30T11:16:39.447Z,26.14
2018-04-30T11:19:07.182Z,26.16
2018-04-30T11:21:34.716Z,26.65
2018-04-30T11:24:02.252Z,26.30
2018-04-30T11:26:30.117Z,26.70
2018-04-30T11:28:57.656Z,27.15
2018-04-30T11:31:25.201Z,27.37
2018-04-30T11:33:52.772Z,27.35
2018-04-30T11:36:20.329Z,27.26
2018-04-30T11:38:47.892Z,27.31
2018-04-30T11:41:15.635Z,26.81
2018-04-30T11:43:43.215Z,26.75
2018-04-30T11:46:10.793Z,26.84
2018-04-30T11:48:38.423Z,26.91
2018-04-30T11:51:05.980Z,26.81
2018-04-30T11:53:33.531Z,26.87
2018-04-30T11:56:01.437Z,26.73
2018-04-30T11:58:28.996Z,26.78
2018-04-30T12:00:56.560Z,26.88
2018-04-30T12:03:24.348Z,27.06
2018-04-30T12:05:51.901Z,27.17
2018-04-30T12:08:19.447Z,27.23
2018-04-30T12:10:47.188Z,27.01
2018-04-30T12:13:14.746Z,27.12
2018-04-30T12:15:42.325Z,27.36
2018-04-30T12:18:10.221Z,27.49
2018-04-30T12:20:37.786Z,27.54
2018-04-30T12:23:05.337Z,27.67
2018-04-30T12:25:33.265Z,27.53
2018-04-30T12:28:00.840Z,27.60
2018-04-30T12:30:28.446Z,27.47
2018-04-30T12:32:56.315Z,27.56
2018-04-30T12:35:23.881Z,27.76
2018-04-30T12:37:51.447Z,27.75
2018-04-30T12:40:19.057Z,27.56
2018-04-30T12:42:46.608Z,27.69
2018-04-30T12:45:14.174Z,27.88
2018-04-30T12:47:41.745Z,27.73
2018-04-30T12:50:09.290Z,27.62
2018-04-30T12:52:36.858Z,27.29
2018-04-30T12:55:04.615Z,27.15
2018-04-30T12:57:32.185Z,26.96
2018-04-30T12:59:59.760Z,27.00
2018-04-30T13:02:27.334Z,27.09
2018-04-30T13:04:54.896Z,27.18
2018-04-30T13:07:22.504Z,26.91
2018-04-30T13:09:50.049Z,26.89
2018-04-30T13:12:17.624Z,26.77
2018-04-30T13:14:45.387Z,26.49
2018-04-30T13:17:12.969Z,26.41
2018-04-30T13:19:40.517Z,26.45
2018-04-30T13:22:08.216Z,26.37
2018-04-30T13:24:35.774Z,26.53
2018-04-30T13:27:03.308Z,26.44
2018-04-30T13:29:30.880Z,26.57
2018-04-30T13:31:58.425Z,26.58
2018-04-30T13:34:25.975Z,26.62
2018-04-30T13:36:53.827Z,26.67
2018-04-30T13:39:21.384Z,26.72
2018-04-30T13:41:48.931Z,26.58
2018-04-30T13:44:16.511Z,26.50
2018-04-30T13:46:44.092Z,26.64
2018-04-30T13:49:11.645Z,26.60
2018-04-30T13:51:39.366Z,26.31
2018-04-30T13:54:06.910Z,26.40
2018-04-30T13:56:34.468Z,26.45
2018-04-30T13:59:02.155Z,26.48
2018-04-30T14:01:29.703Z,26.51
2018-04-30T14:03:57.253Z,26.47
2018-04-30T14:06:24.839Z,26.39
2018-04-30T14:08:52.390Z,26.54
2018-04-30T14:11:19.951Z,26.51
2018-04-30T14:13:47.525Z,26.46
2018-04-30T14:16:15.088Z,26.53
2018-04-30T14:18:42.634Z,26.50
2018-04-30T14:21:10.230Z,26.50
2018-04-30T14:23:37.776Z,26.40
2018-04-30T14:26:05.369Z,26.18
2018-04-30T14:28:32.943Z,26.22
2018-04-30T14:31:00.494Z,26.21
2018-04-30T14:33:28.040Z,26.13
2018-04-30T14:35:55.629Z,26.05
2018-04-30T14:38:23.280Z,26.08
2018-04-30T14:40:50.768Z,26.11
2018-04-30T14:43:18.367Z,26.07
2018-04-30T14:45:45.937Z,25.88
2018-04-30T14:48:13.476Z,25.84
2018-04-30T14:50:41.060Z,25.85
2018-04-30T14:53:08.609Z,25.89
2018-04-30T14:55:36.157Z,25.86
2018-04-30T14:58:03.751Z,25.84
2018-04-30T15:00:31.310Z,25.88
2018-04-30T15:02:58.842Z,25.84
2018-04-30T15:05:26.425Z,25.82
2018-04-30T15:07:53.980Z,25.84
2018-04-30T15:10:21.566Z,25.81
2018-04-30T15:12:49.144Z,25.79
2018-04-30T15:15:16.680Z,25.49
2018-04-30T15:17:44.229Z,25.52
2018-04-30T15:20:11.960Z,25.50
2018-04-30T15:22:39.523Z,25.49
2018-04-30T15:25:07.067Z,25.44
2018-04-30T15:27:34.678Z,25.36
2018-04-30T15:30:02.225Z,25.10
2018-04-30T15:32:29.769Z,25.03
2018-04-30T15:34:57.377Z,25.07
2018-04-30T15:37:24.920Z,24.96
2018-04-30T15:39:52.501Z,24.98
2018-04-30T15:42:20.085Z,24.95
2018-04-30T15:44:47.639Z,24.72
2018-04-30T15:47:15.172Z,24.68
2018-04-30T15:49:42.754Z,24.76
2018-04-30T15:52:10.300Z,24.70
2018-04-30T15:54:37.931Z,24.67
2018-04-30T15:57:05.453Z,24.66
2018-04-30T15:59:32.994Z,24.64
2018-04-30T16:02:00.528Z,24.57
2018-04-30T16:04:28.137Z,24.51
2018-04-30T16:06:55.712Z,24.45
2018-04-30T16:09:23.290Z,24.35
2018-04-30T16:11:50.861Z,24.16
2018-04-30T16:14:18.465Z,24.02
2018-04-30T16:16:45.988Z,23.95
2018-04-30T16:19:13.629Z,23.91
2018-04-30T16:21:41.180Z,23.88
2018-04-30T16:24:08.733Z,23.83
2018-04-30T16:26:36.448Z,23.74
2018-04-30T16:29:03.987Z,23.70
2018-04-30T16:31:31.548Z,23.72
2018-04-30T16:33:59.269Z,23.61
2018-04-30T16:36:26.837Z,23.46
2018-04-30T16:38:54.371Z,23.42
2018-04-30T16:41:21.951Z,23.36
2018-04-30T16:43:49.493Z,23.26
2018-04-30T16:46:17.045Z,23.17
2018-04-30T16:48:44.616Z,23.07
2018-04-30T16:51:12.160Z,22.96
2018-04-30T16:53:39.717Z,22.87
2018-04-30T16:56:07.334Z,22.77
2018-04-30T16:58:34.967Z,22.65
2018-04-30T17:01:02.460Z,22.47
2018-04-30T17:03:30.000Z,22.24
2018-04-30T17:05:57.559Z,22.17
2018-04-30T17:08:25.143Z,22.13
2018-04-30T17:10:52.684Z,22.09
2018-04-30T17:13:20.822Z,21.91
2018-04-30T17:15:48.573Z,21.89
2018-04-30T17:18:16.134Z,21.75
2018-04-30T17:20:43.671Z,21.60
2018-04-30T17:23:11.425Z,21.43
2018-04-30T17:25:38.989Z,21.32
2018-04-30T17:28:06.548Z,21.31
2018-04-30T17:30:34.291Z,21.17
2018-04-30T17:33:01.863Z,21.07
2018-04-30T17:35:29.404Z,20.99
2018-04-30T17:37:57.031Z,20.94
2018-04-30T17:40:24.610Z,20.85
2018-04-30T17:42:52.198Z,20.77
2018-04-30T17:45:19.880Z,20.71
2018-04-30T17:47:47.413Z,20.63
2018-04-30T17:50:15.048Z,20.54
2018-04-30T17:52:42.701Z,20.52
2018-04-30T17:55:10.260Z,20.44
2018-04-30T17:57:37.841Z,20.40
2018-04-30T18:00:05.628Z,20.28
2018-04-30T18:02:33.228Z,20.20
2018-04-30T18:05:00.798Z,20.14
2018-04-30T18:07:28.498Z,20.07
2018-04-30T18:09:56.102Z,20.05
2018-04-30T18:12:23.660Z,19.98
2018-04-30T18:14:51.542Z,19.94
2018-04-30T18:17:19.097Z,19.87
2018-04-30T18:19:46.780Z,19.83
2018-04-30T18:22:14.320Z,19.79
2018-04-30T18:24:41.868Z,19.73
2018-04-30T18:27:09.425Z,19.71
2018-04-30T18:29:37.063Z,19.66
2018-04-30T18:32:04.686Z,19.69
2018-04-30T18:34:32.249Z,19.65
2018-04-30T18:37:00.151Z,19.59
2018-04-30T18:39:27.705Z,19.55
2018-04-30T18:41:55.257Z,19.53
2018-04-30T18:44:22.921Z,19.49
2018-04-30T18:46:50.446Z,19.39
2018-04-30T18:49:18.021Z,19.33
2018-04-30T18:51:45.604Z,19.29
2018-04-30T18:54:13.172Z,19.25
2018-04-30T18:56:40.744Z,19.14
2018-04-30T18:59:08.630Z,19.08
2018-04-30T19:01:36.219Z,19.01
2018-04-30T19:04:03.808Z,18.94
2018-04-30T19:06:31.496Z,18.90
2018-04-30T19:08:59.098Z,18.83
2018-04-30T19:11:26.689Z,18.78
2018-04-30T19:13:54.336Z,18.71
2018-04-30T19:16:21.884Z,18.66
2018-04-30T19:18:49.459Z,18.60
2018-04-30T19:21:17.211Z,18.52
2018-04-30T19:23:44.777Z,18.47
2018-04-30T19:26:12.342Z,18.41
2018-04-30T19:28:40.106Z,18.38
2018-04-30T19:31:07.688Z,18.34
2018-04-30T19:33:35.264Z,18.29
2018-04-30T19:36:02.993Z,18.26
2018-04-30T19:38:30.537Z,18.23
2018-04-30T19:40:58.093Z,18.17
2018-04-30T19:43:25.688Z,18.14
2018-04-30T19:45:53.233Z,18.11
2018-04-30T19:48:20.821Z,18.08
2018-04-30T19:50:48.532Z,18.05
2018-04-30T19:53:16.111Z,18.04
2018-04-30T19:55:43.666Z,17.97
2018-04-30T19:58:11.249Z,17.94
2018-04-30T20:00:38.826Z,17.87
2018-04-30T20:03:06.363Z,17.85
2018-04-30T20:05:33.947Z,17.79
2018-04-30T20:08:01.505Z,17.75
2018-04-30T20:10:29.054Z,17.71
2018-04-30T20:12:56.681Z,17.66
2018-04-30T20:15:24.228Z,17.64
2018-04-30T20:17:51.798Z,17.60
2018-04-30T20:20:19.402Z,17.60
2018-04-30T20:22:46.948Z,17.59
2018-04-30T20:25:14.520Z,17.66
2018-04-30T20:27:42.264Z,17.66
2018-04-30T20:30:09.809Z,17.61
2018-04-30T20:32:37.400Z,17.50
2018-04-30T20:35:04.990Z,17.47
2018-04-30T20:37:32.533Z,17.41
2018-04-30T20:40:00.093Z,17.35
2018-04-30T20:42:27.705Z,17.28
2018-04-30T20:44:55.271Z,17.25
2018-04-30T20:47:22.817Z,17.22
2018-04-30T20:49:50.714Z,17.20
2018-04-30T20:52:18.251Z,17.16
2018-04-30T20:54:45.801Z,17.18
2018-04-30T20:57:13.398Z,17.17
2018-04-30T20:59:40.970Z,17.16
2018-04-30T21:02:08.539Z,17.13
2018-04-30T21:04:36.132Z,17.12
2018-04-30T21:07:03.698Z,17.06
2018-04-30T21:09:31.277Z,17.05
2018-04-30T21:11:58.890Z,17.00
2018-04-30T21:14:26.479Z,16.99
2018-04-30T21:16:54.080Z,16.95
2018-04-30T21:19:21.958Z,16.91
2018-04-30T21:21:49.512Z,16.94
2018-04-30T21:24:17.179Z,16.92
2018-04-30T21:26:44.789Z,16.90
2018-04-30T21:29:12.338Z,16.90
2018-04-30T21:31:39.876Z,16.87
2018-04-30T21:34:07.458Z,16.84
2018-04-30T21:36:35.029Z,16.82
2018-04-30T21:39:02.569Z,16.79
2018-04-30T21:41:30.309Z,16.76
2018-04-30T21:43:57.868Z,16.72
2018-04-30T21:46:25.409Z,16.70
2018-04-30T21:48:53.149Z,16.67
2018-04-30T21:51:20.698Z,16.69
2018-04-30T21:53:48.312Z,16.65
2018-04-30T21:56:16.004Z,16.63
2018-04-30T21:58:43.546Z,16.60
2018-04-30T22:01:11.101Z,16.55
2018-04-30T22:03:38.631Z,16.53
2018-04-30T22:06:06.187Z,16.52
2018-04-30T22:08:33.749Z,16.50
2018-04-30T22:11:01.306Z,16.46
2018-04-30T22:13:28.850Z,16.45
2018-04-30T22:15:56.445Z,16.41
2018-04-30T22:18:23.989Z,16.42
2018-04-30T22:20:51.546Z,16.39
2018-04-30T22:23:19.157Z,16.38
2018-04-30T22:25:46.703Z,16.35
2018-04-30T22:28:14.262Z,16.38
2018-04-30T22:30:41.848Z,16.32
2018-04-30T22:33:09.393Z,16.32
2018-04-30T22:35:36.940Z,16.26
2018-04-30T22:38:04.541Z,16.24
2018-04-30T22:40:32.083Z,16.24
2018-04-30T22:42:59.623Z,16.21
2018-04-30T22:45:27.309Z,16.16
2018-04-30T22:47:54.851Z,16.12
2018-04-30T22:50:22.421Z,16.09
2018-04-30T22:52:50.002Z,16.06
2018-04-30T22:55:17.556Z,16.01
2018-04-30T22:57:45.091Z,15.96
2018-04-30T23:00:12.695Z,15.94
2018-04-30T23:02:40.220Z,15.90
2018-04-30T23:05:07.780Z,15.87
2018-04-30T23:07:35.368Z,15.83
2018-04-30T23:10:02.907Z,15.78
2018-04-30T23:12:30.469Z,15.73
2018-04-30T23:14:58.193Z,15.73
2018-04-30T23:17:25.736Z,15.71
2018-04-30T23:19:53.271Z,15.68
2018-04-30T23:22:20.875Z,15.64
2018-04-30T23:24:48.433Z,15.63
2018-04-30T23:27:15.973Z,15.62
2018-04-30T23:29:43.547Z,15.60
2018-04-30T23:32:11.084Z,15.61
2018-04-30T23:34:38.630Z,15.55
2018-04-30T23:37:06.365Z,15.55
2018-04-30T23:39:33.915Z,15.53
2018-04-30T23:42:01.452Z,15.58
2018-04-30T23:44:29.180Z,15.54
2018-04-30T23:46:56.724Z,15.50
2018-04-30T23:49:24.282Z,15.44
2018-04-30T23:51:51.991Z,15.39
2018-04-30T23:54:19.531Z,15.40
2018-04-30T23:56:47.086Z,15.37
2018-04-30T23:59:14.660Z,15.36
